sensor_id;sensor_type;location;lat;lon;timestamp;P1;durP1;ratioP1;P2;durP2;ratioP2
63157;SDS011;49381;49.338;8.794;2022-09-12T00:01:51;6.03;;;4.28;;
63157;SDS011;49381;49.338;8.794;2022-09-12T00:03:52;8.00;;;4.90;;
63157;SDS011;49381;49.338;8.794;2022-09-12T00:05:53;7.35;;;5.22;;
63157;SDS011;49381;49.338;8.794;2022-09-12T00:07:55;8.52;;;4.70;;
63157;SDS011;49381;49.338;8.794;2022-09-12T00:09:56;9.50;;;4.82;;
63157;SDS011;49381;49.338;8.794;2022-09-12T00:11:56;6.70;;;4.65;;
63157;SDS011;49381;49.338;8.794;2022-09-12T00:13:57;9.15;;;4.65;;
63157;SDS011;49381;49.338;8.794;2022-09-12T00:15:58;7.80;;;4.43;;
63157;SDS011;49381;49.338;8.794;2022-09-12T00:17:59;9.70;;;4.90;;
63157;SDS011;49381;49.338;8.794;2022-09-12T00:19:59;5.75;;;4.78;;
63157;SDS011;49381;49.338;8.794;2022-09-12T00:21:59;6.13;;;4.78;;
63157;SDS011;49381;49.338;8.794;2022-09-12T00:24:01;7.75;;;5.07;;
63157;SDS011;49381;49.338;8.794;2022-09-12T00:26:03;7.10;;;5.07;;
63157;SDS011;49381;49.338;8.794;2022-09-12T00:28:04;6.55;;;4.70;;
63157;SDS011;49381;49.338;8.794;2022-09-12T00:30:05;5.50;;;4.65;;
63157;SDS011;49381;49.338;8.794;2022-09-12T00:32:06;7.55;;;4.75;;
63157;SDS011;49381;49.338;8.794;2022-09-12T00:34:07;6.38;;;3.78;;
63157;SDS011;49381;49.338;8.794;2022-09-12T00:36:10;6.60;;;3.90;;
63157;SDS011;49381;49.338;8.794;2022-09-12T00:38:12;4.68;;;3.65;;
63157;SDS011;49381;49.338;8.794;2022-09-12T00:40:15;4.53;;;3.33;;
63157;SDS011;49381;49.338;8.794;2022-09-12T00:42:15;3.95;;;3.20;;
63157;SDS011;49381;49.338;8.794;2022-09-12T00:46:50;3.20;;;2.67;;
63157;SDS011;49381;49.338;8.794;2022-09-12T00:48:54;5.22;;;3.20;;
63157;SDS011;49381;49.338;8.794;2022-09-12T00:50:58;3.50;;;2.63;;
63157;SDS011;49381;49.338;8.794;2022-09-12T00:52:59;3.72;;;2.20;;
63157;SDS011;49381;49.338;8.794;2022-09-12T00:55:04;3.70;;;2.50;;
63157;SDS011;49381;49.338;8.794;2022-09-12T00:57:09;4.18;;;2.60;;
63157;SDS011;49381;49.338;8.794;2022-09-12T00:59:13;3.95;;;3.25;;
63157;SDS011;49381;49.338;8.794;2022-09-12T01:01:17;4.05;;;3.15;;
63157;SDS011;49381;49.338;8.794;2022-09-12T01:03:18;3.90;;;3.10;;
63157;SDS011;49381;49.338;8.794;2022-09-12T01:05:22;6.50;;;3.80;;
63157;SDS011;49381;49.338;8.794;2022-09-12T01:07:23;4.68;;;3.70;;
63157;SDS011;49381;49.338;8.794;2022-09-12T01:09:23;4.85;;;3.70;;
63157;SDS011;49381;49.338;8.794;2022-09-12T01:11:24;6.28;;;3.67;;
63157;SDS011;49381;49.338;8.794;2022-09-12T01:13:26;5.93;;;3.58;;
63157;SDS011;49381;49.338;8.794;2022-09-12T01:15:27;5.13;;;4.07;;
63157;SDS011;49381;49.338;8.794;2022-09-12T01:17:29;5.82;;;3.80;;
63157;SDS011;49381;49.338;8.794;2022-09-12T01:19:42;4.95;;;3.92;;
63157;SDS011;49381;49.338;8.794;2022-09-12T01:21:58;6.47;;;3.58;;
63157;SDS011;49381;49.338;8.794;2022-09-12T01:29:21;5.70;;;3.67;;
63157;SDS011;49381;49.338;8.794;2022-09-12T01:31:39;5.50;;;3.28;;
63157;SDS011;49381;49.338;8.794;2022-09-12T01:33:51;4.70;;;3.20;;
63157;SDS011;49381;49.338;8.794;2022-09-12T01:36:06;5.03;;;2.80;;
63157;SDS011;49381;49.338;8.794;2022-09-12T01:38:24;4.30;;;2.65;;
63157;SDS011;49381;49.338;8.794;2022-09-12T01:40:32;4.00;;;2.75;;
63157;SDS011;49381;49.338;8.794;2022-09-12T01:42:40;4.10;;;2.95;;
63157;SDS011;49381;49.338;8.794;2022-09-12T01:44:49;5.95;;;3.42;;
63157;SDS011;49381;49.338;8.794;2022-09-12T01:46:56;4.40;;;3.33;;
63157;SDS011;49381;49.338;8.794;2022-09-12T01:49:02;4.80;;;3.15;;
63157;SDS011;49381;49.338;8.794;2022-09-12T01:51:11;6.40;;;3.58;;
63157;SDS011;49381;49.338;8.794;2022-09-12T01:53:18;7.15;;;3.83;;
63157;SDS011;49381;49.338;8.794;2022-09-12T01:55:23;5.25;;;3.90;;
63157;SDS011;49381;49.338;8.794;2022-09-12T01:57:28;5.63;;;4.10;;
63157;SDS011;49381;49.338;8.794;2022-09-12T01:59:33;6.47;;;4.18;;
63157;SDS011;49381;49.338;8.794;2022-09-12T02:01:37;9.13;;;4.20;;
63157;SDS011;49381;49.338;8.794;2022-09-12T02:03:43;6.65;;;4.70;;
63157;SDS011;49381;49.338;8.794;2022-09-12T02:05:49;9.05;;;4.47;;
63157;SDS011;49381;49.338;8.794;2022-09-12T02:07:56;9.25;;;5.15;;
63157;SDS011;49381;49.338;8.794;2022-09-12T02:10:02;8.50;;;4.22;;
63157;SDS011;49381;49.338;8.794;2022-09-12T02:12:06;5.00;;;3.50;;
63157;SDS011;49381;49.338;8.794;2022-09-12T02:14:11;4.78;;;3.55;;
63157;SDS011;49381;49.338;8.794;2022-09-12T02:16:15;6.05;;;3.53;;
63157;SDS011;49381;49.338;8.794;2022-09-12T02:18:18;5.80;;;4.13;;
63157;SDS011;49381;49.338;8.794;2022-09-12T02:20:21;8.90;;;4.50;;
63157;SDS011;49381;49.338;8.794;2022-09-12T02:22:24;5.88;;;4.30;;
63157;SDS011;49381;49.338;8.794;2022-09-12T02:24:27;7.47;;;4.43;;
63157;SDS011;49381;49.338;8.794;2022-09-12T02:26:32;8.73;;;4.55;;
63157;SDS011;49381;49.338;8.794;2022-09-12T02:28:35;6.28;;;4.80;;
63157;SDS011;49381;49.338;8.794;2022-09-12T02:30:40;9.43;;;5.20;;
63157;SDS011;49381;49.338;8.794;2022-09-12T02:32:46;10.65;;;5.72;;
63157;SDS011;49381;49.338;8.794;2022-09-12T02:34:58;7.65;;;4.82;;
63157;SDS011;49381;49.338;8.794;2022-09-12T02:37:06;8.77;;;4.50;;
63157;SDS011;49381;49.338;8.794;2022-09-12T02:39:11;7.40;;;5.20;;
63157;SDS011;49381;49.338;8.794;2022-09-12T02:41:11;8.75;;;5.03;;
63157;SDS011;49381;49.338;8.794;2022-09-12T02:43:14;8.02;;;4.97;;
63157;SDS011;49381;49.338;8.794;2022-09-12T02:45:15;7.57;;;4.68;;
63157;SDS011;49381;49.338;8.794;2022-09-12T02:47:17;6.40;;;4.63;;
63157;SDS011;49381;49.338;8.794;2022-09-12T02:49:23;11.55;;;5.40;;
63157;SDS011;49381;49.338;8.794;2022-09-12T02:51:24;8.52;;;4.63;;
63157;SDS011;49381;49.338;8.794;2022-09-12T02:53:26;8.05;;;5.18;;
63157;SDS011;49381;49.338;8.794;2022-09-12T02:55:26;10.00;;;6.18;;
63157;SDS011;49381;49.338;8.794;2022-09-12T02:57:27;11.07;;;4.75;;
63157;SDS011;49381;49.338;8.794;2022-09-12T02:59:27;9.07;;;5.18;;
63157;SDS011;49381;49.338;8.794;2022-09-12T03:01:28;7.88;;;5.32;;
63157;SDS011;49381;49.338;8.794;2022-09-12T03:03:45;6.43;;;4.78;;
63157;SDS011;49381;49.338;8.794;2022-09-12T03:05:58;7.22;;;4.78;;
63157;SDS011;49381;49.338;8.794;2022-09-12T03:10:31;10.48;;;5.22;;
63157;SDS011;49381;49.338;8.794;2022-09-12T03:12:40;10.90;;;5.28;;
63157;SDS011;49381;49.338;8.794;2022-09-12T03:14:50;5.78;;;4.13;;
63157;SDS011;49381;49.338;8.794;2022-09-12T03:17:06;8.13;;;4.20;;
63157;SDS011;49381;49.338;8.794;2022-09-12T03:19:14;6.22;;;4.20;;
63157;SDS011;49381;49.338;8.794;2022-09-12T03:21:20;7.85;;;4.25;;
63157;SDS011;49381;49.338;8.794;2022-09-12T03:23:28;6.38;;;4.25;;
63157;SDS011;49381;49.338;8.794;2022-09-12T03:25:34;7.60;;;5.40;;
63157;SDS011;49381;49.338;8.794;2022-09-12T03:27:37;6.18;;;4.47;;
63157;SDS011;49381;49.338;8.794;2022-09-12T03:29:42;7.55;;;4.10;;
63157;SDS011;49381;49.338;8.794;2022-09-12T03:31:48;6.13;;;3.90;;
63157;SDS011;49381;49.338;8.794;2022-09-12T03:33:50;5.07;;;3.63;;
63157;SDS011;49381;49.338;8.794;2022-09-12T03:35:51;7.13;;;3.85;;
63157;SDS011;49381;49.338;8.794;2022-09-12T03:37:51;6.53;;;3.92;;
63157;SDS011;49381;49.338;8.794;2022-09-12T03:39:52;9.93;;;4.43;;
63157;SDS011;49381;49.338;8.794;2022-09-12T03:41:54;5.85;;;3.50;;
63157;SDS011;49381;49.338;8.794;2022-09-12T03:43:55;7.95;;;3.50;;
63157;SDS011;49381;49.338;8.794;2022-09-12T03:45:55;6.60;;;4.22;;
63157;SDS011;49381;49.338;8.794;2022-09-12T03:47:55;5.57;;;4.05;;
63157;SDS011;49381;49.338;8.794;2022-09-12T03:49:56;4.97;;;3.53;;
63157;SDS011;49381;49.338;8.794;2022-09-12T03:51:56;5.95;;;3.97;;
63157;SDS011;49381;49.338;8.794;2022-09-12T03:53:56;6.45;;;3.47;;
63157;SDS011;49381;49.338;8.794;2022-09-12T03:55:57;5.53;;;3.53;;
63157;SDS011;49381;49.338;8.794;2022-09-12T03:57:59;7.35;;;4.70;;
63157;SDS011;49381;49.338;8.794;2022-09-12T03:59:59;6.00;;;4.22;;
63157;SDS011;49381;49.338;8.794;2022-09-12T04:01:59;7.38;;;4.00;;
63157;SDS011;49381;49.338;8.794;2022-09-12T04:04:00;6.30;;;4.28;;
63157;SDS011;49381;49.338;8.794;2022-09-12T04:06:00;7.18;;;4.32;;
63157;SDS011;49381;49.338;8.794;2022-09-12T04:08:00;7.97;;;4.05;;
63157;SDS011;49381;49.338;8.794;2022-09-12T04:10:01;7.18;;;4.93;;
63157;SDS011;49381;49.338;8.794;2022-09-12T04:12:02;10.38;;;5.55;;
63157;SDS011;49381;49.338;8.794;2022-09-12T04:14:04;9.95;;;5.18;;
63157;SDS011;49381;49.338;8.794;2022-09-12T04:16:04;12.10;;;6.07;;
63157;SDS011;49381;49.338;8.794;2022-09-12T04:18:05;11.63;;;6.05;;
63157;SDS011;49381;49.338;8.794;2022-09-12T04:20:05;10.80;;;5.97;;
63157;SDS011;49381;49.338;8.794;2022-09-12T04:22:06;16.15;;;6.90;;
63157;SDS011;49381;49.338;8.794;2022-09-12T04:24:06;21.67;;;6.93;;
63157;SDS011;49381;49.338;8.794;2022-09-12T04:26:07;16.20;;;7.13;;
63157;SDS011;49381;49.338;8.794;2022-09-12T04:28:08;13.48;;;7.05;;
63157;SDS011;49381;49.338;8.794;2022-09-12T04:30:10;10.05;;;6.40;;
63157;SDS011;49381;49.338;8.794;2022-09-12T04:32:11;11.55;;;5.82;;
63157;SDS011;49381;49.338;8.794;2022-09-12T04:34:12;11.93;;;6.03;;
63157;SDS011;49381;49.338;8.794;2022-09-12T04:36:13;9.88;;;5.78;;
63157;SDS011;49381;49.338;8.794;2022-09-12T04:38:15;22.30;;;6.72;;
63157;SDS011;49381;49.338;8.794;2022-09-12T04:40:15;37.70;;;7.13;;
63157;SDS011;49381;49.338;8.794;2022-09-12T04:42:16;9.23;;;5.53;;
63157;SDS011;49381;49.338;8.794;2022-09-12T04:44:16;13.68;;;6.45;;
63157;SDS011;49381;49.338;8.794;2022-09-12T04:46:18;14.77;;;6.50;;
63157;SDS011;49381;49.338;8.794;2022-09-12T04:48:19;21.63;;;7.57;;
63157;SDS011;49381;49.338;8.794;2022-09-12T04:50:19;25.40;;;6.40;;
63157;SDS011;49381;49.338;8.794;2022-09-12T04:52:19;35.03;;;7.63;;
63157;SDS011;49381;49.338;8.794;2022-09-12T04:54:20;19.95;;;6.32;;
63157;SDS011;49381;49.338;8.794;2022-09-12T04:56:20;17.85;;;6.85;;
63157;SDS011;49381;49.338;8.794;2022-09-12T04:58:21;28.15;;;6.40;;
63157;SDS011;49381;49.338;8.794;2022-09-12T05:00:22;14.23;;;6.30;;
63157;SDS011;49381;49.338;8.794;2022-09-12T05:02:23;26.63;;;7.93;;
63157;SDS011;49381;49.338;8.794;2022-09-12T05:04:24;35.08;;;7.28;;
63157;SDS011;49381;49.338;8.794;2022-09-12T05:06:25;14.48;;;6.05;;
63157;SDS011;49381;49.338;8.794;2022-09-12T05:08:26;9.75;;;5.93;;
63157;SDS011;49381;49.338;8.794;2022-09-12T05:10:27;10.77;;;6.22;;
63157;SDS011;49381;49.338;8.794;2022-09-12T05:12:27;12.88;;;6.38;;
63157;SDS011;49381;49.338;8.794;2022-09-12T05:14:27;23.73;;;6.68;;
63157;SDS011;49381;49.338;8.794;2022-09-12T05:16:28;14.43;;;6.15;;
63157;SDS011;49381;49.338;8.794;2022-09-12T05:18:31;9.77;;;5.55;;
63157;SDS011;49381;49.338;8.794;2022-09-12T05:20:32;11.52;;;4.60;;
63157;SDS011;49381;49.338;8.794;2022-09-12T05:22:32;9.25;;;5.20;;
63157;SDS011;49381;49.338;8.794;2022-09-12T05:24:32;6.45;;;4.47;;
63157;SDS011;49381;49.338;8.794;2022-09-12T05:26:33;6.40;;;4.00;;
63157;SDS011;49381;49.338;8.794;2022-09-12T05:28:34;8.85;;;3.90;;
63157;SDS011;49381;49.338;8.794;2022-09-12T05:30:35;6.80;;;4.40;;
63157;SDS011;49381;49.338;8.794;2022-09-12T05:32:35;5.90;;;4.10;;
63157;SDS011;49381;49.338;8.794;2022-09-12T05:34:37;7.68;;;4.07;;
63157;SDS011;49381;49.338;8.794;2022-09-12T05:36:37;8.13;;;4.30;;
63157;SDS011;49381;49.338;8.794;2022-09-12T05:38:38;7.30;;;3.90;;
63157;SDS011;49381;49.338;8.794;2022-09-12T05:40:38;7.07;;;4.35;;
63157;SDS011;49381;49.338;8.794;2022-09-12T05:42:39;9.98;;;4.55;;
63157;SDS011;49381;49.338;8.794;2022-09-12T05:44:39;7.68;;;4.10;;
63157;SDS011;49381;49.338;8.794;2022-09-12T05:46:40;6.50;;;4.43;;
63157;SDS011;49381;49.338;8.794;2022-09-12T05:48:42;8.35;;;4.63;;
63157;SDS011;49381;49.338;8.794;2022-09-12T05:50:45;6.57;;;4.00;;
63157;SDS011;49381;49.338;8.794;2022-09-12T05:52:45;9.57;;;3.95;;
63157;SDS011;49381;49.338;8.794;2022-09-12T05:54:46;7.47;;;4.38;;
63157;SDS011;49381;49.338;8.794;2022-09-12T05:56:47;7.72;;;3.80;;
63157;SDS011;49381;49.338;8.794;2022-09-12T05:58:51;6.72;;;3.97;;
63157;SDS011;49381;49.338;8.794;2022-09-12T06:00:53;6.00;;;4.07;;
63157;SDS011;49381;49.338;8.794;2022-09-12T06:02:53;5.30;;;3.38;;
63157;SDS011;49381;49.338;8.794;2022-09-12T06:04:54;7.03;;;3.40;;
63157;SDS011;49381;49.338;8.794;2022-09-12T06:06:55;12.90;;;4.20;;
63157;SDS011;49381;49.338;8.794;2022-09-12T06:08:56;12.00;;;4.13;;
63157;SDS011;49381;49.338;8.794;2022-09-12T06:10:59;7.25;;;3.92;;
63157;SDS011;49381;49.338;8.794;2022-09-12T06:13:00;8.85;;;5.95;;
63157;SDS011;49381;49.338;8.794;2022-09-12T06:15:00;6.97;;;3.90;;
63157;SDS011;49381;49.338;8.794;2022-09-12T06:17:00;6.75;;;4.60;;
63157;SDS011;49381;49.338;8.794;2022-09-12T06:19:01;11.40;;;6.53;;
63157;SDS011;49381;49.338;8.794;2022-09-12T06:21:07;11.38;;;6.80;;
63157;SDS011;49381;49.338;8.794;2022-09-12T06:23:10;7.05;;;5.00;;
63157;SDS011;49381;49.338;8.794;2022-09-12T06:25:11;6.70;;;4.82;;
63157;SDS011;49381;49.338;8.794;2022-09-12T06:27:11;11.18;;;6.55;;
63157;SDS011;49381;49.338;8.794;2022-09-12T06:29:12;11.68;;;6.82;;
63157;SDS011;49381;49.338;8.794;2022-09-12T06:31:13;11.23;;;6.80;;
63157;SDS011;49381;49.338;8.794;2022-09-12T06:33:15;10.48;;;6.28;;
63157;SDS011;49381;49.338;8.794;2022-09-12T06:35:16;9.23;;;6.10;;
63157;SDS011;49381;49.338;8.794;2022-09-12T06:37:16;9.00;;;5.75;;
63157;SDS011;49381;49.338;8.794;2022-09-12T06:39:18;10.35;;;7.50;;
63157;SDS011;49381;49.338;8.794;2022-09-12T06:41:20;8.00;;;5.28;;
63157;SDS011;49381;49.338;8.794;2022-09-12T06:43:20;9.40;;;6.57;;
63157;SDS011;49381;49.338;8.794;2022-09-12T06:45:21;10.02;;;6.78;;
63157;SDS011;49381;49.338;8.794;2022-09-12T06:47:21;10.18;;;5.65;;
63157;SDS011;49381;49.338;8.794;2022-09-12T06:49:21;8.30;;;5.18;;
63157;SDS011;49381;49.338;8.794;2022-09-12T06:51:22;7.90;;;5.40;;
63157;SDS011;49381;49.338;8.794;2022-09-12T06:53:22;8.65;;;5.90;;
63157;SDS011;49381;49.338;8.794;2022-09-12T06:55:24;8.80;;;5.25;;
63157;SDS011;49381;49.338;8.794;2022-09-12T06:57:24;8.35;;;5.78;;
63157;SDS011;49381;49.338;8.794;2022-09-12T06:59:25;9.98;;;5.68;;
63157;SDS011;49381;49.338;8.794;2022-09-12T07:01:25;7.65;;;5.22;;
63157;SDS011;49381;49.338;8.794;2022-09-12T07:03:27;8.02;;;5.55;;
63157;SDS011;49381;49.338;8.794;2022-09-12T07:05:27;7.18;;;4.75;;
63157;SDS011;49381;49.338;8.794;2022-09-12T07:07:27;6.70;;;4.38;;
63157;SDS011;49381;49.338;8.794;2022-09-12T07:09:28;8.20;;;5.72;;
63157;SDS011;49381;49.338;8.794;2022-09-12T07:11:30;8.38;;;4.80;;
63157;SDS011;49381;49.338;8.794;2022-09-12T07:13:31;6.47;;;4.38;;
63157;SDS011;49381;49.338;8.794;2022-09-12T07:15:33;9.25;;;6.30;;
63157;SDS011;49381;49.338;8.794;2022-09-12T07:17:33;8.52;;;4.97;;
63157;SDS011;49381;49.338;8.794;2022-09-12T07:19:34;7.80;;;4.82;;
63157;SDS011;49381;49.338;8.794;2022-09-12T07:21:34;8.70;;;5.38;;
63157;SDS011;49381;49.338;8.794;2022-09-12T07:23:35;8.43;;;5.38;;
63157;SDS011;49381;49.338;8.794;2022-09-12T07:25:35;8.15;;;5.03;;
63157;SDS011;49381;49.338;8.794;2022-09-12T07:27:37;8.82;;;5.35;;
63157;SDS011;49381;49.338;8.794;2022-09-12T07:29:37;8.00;;;5.50;;
63157;SDS011;49381;49.338;8.794;2022-09-12T07:31:38;7.28;;;5.00;;
63157;SDS011;49381;49.338;8.794;2022-09-12T07:33:38;8.43;;;6.00;;
63157;SDS011;49381;49.338;8.794;2022-09-12T07:35:39;9.95;;;6.05;;
63157;SDS011;49381;49.338;8.794;2022-09-12T07:37:40;8.63;;;5.72;;
63157;SDS011;49381;49.338;8.794;2022-09-12T07:39:40;6.68;;;4.90;;
63157;SDS011;49381;49.338;8.794;2022-09-12T07:41:40;9.10;;;5.65;;
63157;SDS011;49381;49.338;8.794;2022-09-12T07:43:42;8.30;;;5.20;;
63157;SDS011;49381;49.338;8.794;2022-09-12T07:45:42;7.80;;;5.95;;
63157;SDS011;49381;49.338;8.794;2022-09-12T07:47:43;9.55;;;6.15;;
63157;SDS011;49381;49.338;8.794;2022-09-12T07:49:43;9.18;;;5.57;;
63157;SDS011;49381;49.338;8.794;2022-09-12T07:51:43;13.07;;;6.80;;
63157;SDS011;49381;49.338;8.794;2022-09-12T07:53:44;9.63;;;7.25;;
63157;SDS011;49381;49.338;8.794;2022-09-12T07:55:51;8.07;;;5.38;;
63157;SDS011;49381;49.338;8.794;2022-09-12T07:57:52;10.40;;;6.10;;
63157;SDS011;49381;49.338;8.794;2022-09-12T07:59:53;10.23;;;7.07;;
63157;SDS011;49381;49.338;8.794;2022-09-12T08:01:54;11.43;;;7.15;;
63157;SDS011;49381;49.338;8.794;2022-09-12T08:03:54;10.82;;;7.47;;
63157;SDS011;49381;49.338;8.794;2022-09-12T08:06:01;10.68;;;6.65;;
63157;SDS011;49381;49.338;8.794;2022-09-12T08:08:02;10.85;;;7.22;;
63157;SDS011;49381;49.338;8.794;2022-09-12T08:10:03;11.35;;;7.22;;
63157;SDS011;49381;49.338;8.794;2022-09-12T08:12:04;11.48;;;7.72;;
63157;SDS011;49381;49.338;8.794;2022-09-12T08:14:04;12.25;;;8.23;;
63157;SDS011;49381;49.338;8.794;2022-09-12T08:16:07;12.52;;;8.77;;
63157;SDS011;49381;49.338;8.794;2022-09-12T08:18:09;10.98;;;7.80;;
63157;SDS011;49381;49.338;8.794;2022-09-12T08:20:10;10.52;;;7.50;;
63157;SDS011;49381;49.338;8.794;2022-09-12T08:22:10;15.52;;;9.00;;
63157;SDS011;49381;49.338;8.794;2022-09-12T08:24:11;10.32;;;7.28;;
63157;SDS011;49381;49.338;8.794;2022-09-12T08:26:11;10.80;;;8.02;;
63157;SDS011;49381;49.338;8.794;2022-09-12T08:28:12;12.57;;;8.20;;
63157;SDS011;49381;49.338;8.794;2022-09-12T08:30:12;12.32;;;7.80;;
63157;SDS011;49381;49.338;8.794;2022-09-12T08:32:14;11.60;;;8.43;;
63157;SDS011;49381;49.338;8.794;2022-09-12T08:34:15;13.73;;;8.65;;
63157;SDS011;49381;49.338;8.794;2022-09-12T08:36:16;15.15;;;9.00;;
63157;SDS011;49381;49.338;8.794;2022-09-12T08:38:17;10.55;;;7.13;;
63157;SDS011;49381;49.338;8.794;2022-09-12T08:40:18;11.60;;;6.93;;
63157;SDS011;49381;49.338;8.794;2022-09-12T08:42:21;17.10;;;7.45;;
63157;SDS011;49381;49.338;8.794;2022-09-12T08:46:54;11.77;;;7.55;;
63157;SDS011;49381;49.338;8.794;2022-09-12T08:49:06;14.48;;;8.38;;
63157;SDS011;49381;49.338;8.794;2022-09-12T08:51:12;13.82;;;8.55;;
63157;SDS011;49381;49.338;8.794;2022-09-12T08:53:16;11.00;;;7.18;;
63157;SDS011;49381;49.338;8.794;2022-09-12T08:55:24;10.52;;;7.15;;
63157;SDS011;49381;49.338;8.794;2022-09-12T08:57:32;11.23;;;7.70;;
63157;SDS011;49381;49.338;8.794;2022-09-12T08:59:34;9.48;;;7.72;;
63157;SDS011;49381;49.338;8.794;2022-09-12T09:01:39;12.55;;;8.05;;
63157;SDS011;49381;49.338;8.794;2022-09-12T09:06:11;11.77;;;7.35;;
63157;SDS011;49381;49.338;8.794;2022-09-12T09:08:27;12.35;;;7.05;;
63157;SDS011;49381;49.338;8.794;2022-09-12T09:10:39;12.57;;;7.93;;
63157;SDS011;49381;49.338;8.794;2022-09-12T09:12:48;11.85;;;7.93;;
63157;SDS011;49381;49.338;8.794;2022-09-12T09:15:01;14.27;;;7.63;;
63157;SDS011;49381;49.338;8.794;2022-09-12T09:17:13;10.45;;;6.35;;
63157;SDS011;49381;49.338;8.794;2022-09-12T09:19:19;10.65;;;7.47;;
63157;SDS011;49381;49.338;8.794;2022-09-12T09:21:22;10.25;;;8.00;;
63157;SDS011;49381;49.338;8.794;2022-09-12T09:23:27;9.65;;;7.38;;
63157;SDS011;49381;49.338;8.794;2022-09-12T09:25:35;10.23;;;7.45;;
63157;SDS011;49381;49.338;8.794;2022-09-12T09:27:40;10.25;;;7.40;;
63157;SDS011;49381;49.338;8.794;2022-09-12T09:29:46;10.55;;;7.63;;
63157;SDS011;49381;49.338;8.794;2022-09-12T09:31:50;9.75;;;7.15;;
63157;SDS011;49381;49.338;8.794;2022-09-12T09:33:52;10.90;;;7.32;;
63157;SDS011;49381;49.338;8.794;2022-09-12T09:35:57;9.23;;;7.40;;
63157;SDS011;49381;49.338;8.794;2022-09-12T09:38:04;10.00;;;7.53;;
63157;SDS011;49381;49.338;8.794;2022-09-12T09:40:15;11.73;;;6.93;;
63157;SDS011;49381;49.338;8.794;2022-09-12T09:42:23;9.52;;;6.60;;
63157;SDS011;49381;49.338;8.794;2022-09-12T09:44:29;8.40;;;5.80;;
63157;SDS011;49381;49.338;8.794;2022-09-12T09:46:30;8.82;;;6.75;;
63157;SDS011;49381;49.338;8.794;2022-09-12T09:48:31;12.40;;;6.88;;
63157;SDS011;49381;49.338;8.794;2022-09-12T09:50:33;7.22;;;5.65;;
63157;SDS011;49381;49.338;8.794;2022-09-12T09:52:36;7.90;;;5.72;;
63157;SDS011;49381;49.338;8.794;2022-09-12T09:54:38;9.07;;;4.90;;
63157;SDS011;49381;49.338;8.794;2022-09-12T09:56:41;6.65;;;5.25;;
63157;SDS011;49381;49.338;8.794;2022-09-12T09:58:42;6.93;;;5.00;;
63157;SDS011;49381;49.338;8.794;2022-09-12T10:00:42;6.47;;;4.70;;
63157;SDS011;49381;49.338;8.794;2022-09-12T10:02:43;8.07;;;5.25;;
63157;SDS011;49381;49.338;8.794;2022-09-12T10:04:57;9.07;;;4.68;;
63157;SDS011;49381;49.338;8.794;2022-09-12T10:06:59;7.03;;;4.10;;
63157;SDS011;49381;49.338;8.794;2022-09-12T10:09:17;7.68;;;4.57;;
63157;SDS011;49381;49.338;8.794;2022-09-12T10:11:20;7.75;;;5.28;;
63157;SDS011;49381;49.338;8.794;2022-09-12T10:13:23;6.03;;;4.95;;
63157;SDS011;49381;49.338;8.794;2022-09-12T10:15:27;7.65;;;6.05;;
63157;SDS011;49381;49.338;8.794;2022-09-12T10:17:27;7.90;;;5.00;;
63157;SDS011;49381;49.338;8.794;2022-09-12T10:19:32;6.80;;;4.47;;
63157;SDS011;49381;49.338;8.794;2022-09-12T10:21:34;6.85;;;4.30;;
63157;SDS011;49381;49.338;8.794;2022-09-12T10:23:37;5.30;;;4.50;;
63157;SDS011;49381;49.338;8.794;2022-09-12T10:25:39;5.68;;;4.55;;
63157;SDS011;49381;49.338;8.794;2022-09-12T10:27:39;5.80;;;4.70;;
63157;SDS011;49381;49.338;8.794;2022-09-12T10:29:41;5.05;;;3.55;;
63157;SDS011;49381;49.338;8.794;2022-09-12T10:31:46;7.57;;;4.05;;
63157;SDS011;49381;49.338;8.794;2022-09-12T10:33:49;5.40;;;4.40;;
63157;SDS011;49381;49.338;8.794;2022-09-12T10:35:50;4.78;;;3.88;;
63157;SDS011;49381;49.338;8.794;2022-09-12T10:37:53;5.13;;;3.75;;
63157;SDS011;49381;49.338;8.794;2022-09-12T10:39:56;6.88;;;4.38;;
63157;SDS011;49381;49.338;8.794;2022-09-12T10:41:59;6.35;;;4.57;;
63157;SDS011;49381;49.338;8.794;2022-09-12T10:44:04;4.80;;;3.60;;
63157;SDS011;49381;49.338;8.794;2022-09-12T10:46:27;5.75;;;3.92;;
63157;SDS011;49381;49.338;8.794;2022-09-12T10:48:28;5.28;;;4.07;;
63157;SDS011;49381;49.338;8.794;2022-09-12T10:50:30;5.35;;;3.90;;
63157;SDS011;49381;49.338;8.794;2022-09-12T10:52:34;5.60;;;4.68;;
63157;SDS011;49381;49.338;8.794;2022-09-12T10:54:34;4.78;;;4.07;;
63157;SDS011;49381;49.338;8.794;2022-09-12T10:56:37;4.45;;;3.30;;
63157;SDS011;49381;49.338;8.794;2022-09-12T10:58:46;6.10;;;4.10;;
63157;SDS011;49381;49.338;8.794;2022-09-12T11:01:02;4.70;;;3.47;;
63157;SDS011;49381;49.338;8.794;2022-09-12T11:03:11;5.75;;;3.83;;
63157;SDS011;49381;49.338;8.794;2022-09-12T11:05:17;4.38;;;3.10;;
63157;SDS011;49381;49.338;8.794;2022-09-12T11:07:32;4.95;;;3.58;;
63157;SDS011;49381;49.338;8.794;2022-09-12T11:09:39;9.65;;;4.03;;
63157;SDS011;49381;49.338;8.794;2022-09-12T11:11:46;7.72;;;4.15;;
63157;SDS011;49381;49.338;8.794;2022-09-12T11:14:02;6.97;;;4.10;;
63157;SDS011;49381;49.338;8.794;2022-09-12T11:16:14;5.68;;;3.50;;
63157;SDS011;49381;49.338;8.794;2022-09-12T11:18:28;6.57;;;3.47;;
63157;SDS011;49381;49.338;8.794;2022-09-12T11:20:51;6.38;;;3.67;;
63157;SDS011;49381;49.338;8.794;2022-09-12T11:25:30;5.82;;;3.40;;
63157;SDS011;49381;49.338;8.794;2022-09-12T11:27:44;6.75;;;3.10;;
63157;SDS011;49381;49.338;8.794;2022-09-12T11:29:58;3.85;;;2.95;;
63157;SDS011;49381;49.338;8.794;2022-09-12T11:32:06;7.88;;;3.22;;
63157;SDS011;49381;49.338;8.794;2022-09-12T11:34:23;7.45;;;3.35;;
63157;SDS011;49381;49.338;8.794;2022-09-12T11:36:32;4.13;;;2.80;;
63157;SDS011;49381;49.338;8.794;2022-09-12T11:38:43;6.20;;;2.70;;
63157;SDS011;49381;49.338;8.794;2022-09-12T11:42:53;5.97;;;3.40;;
63157;SDS011;49381;49.338;8.794;2022-09-12T11:47:02;7.18;;;3.67;;
63157;SDS011;49381;49.338;8.794;2022-09-12T11:49:05;4.82;;;3.67;;
63157;SDS011;49381;49.338;8.794;2022-09-12T11:51:16;5.13;;;3.30;;
63157;SDS011;49381;49.338;8.794;2022-09-12T11:53:27;4.80;;;2.97;;
63157;SDS011;49381;49.338;8.794;2022-09-12T11:55:36;4.82;;;3.90;;
63157;SDS011;49381;49.338;8.794;2022-09-12T11:57:47;4.68;;;3.65;;
63157;SDS011;49381;49.338;8.794;2022-09-12T11:59:52;6.03;;;3.65;;
63157;SDS011;49381;49.338;8.794;2022-09-12T12:01:58;3.63;;;2.22;;
63157;SDS011;49381;49.338;8.794;2022-09-12T12:03:59;8.30;;;3.50;;
63157;SDS011;49381;49.338;8.794;2022-09-12T12:10:21;3.88;;;3.00;;
63157;SDS011;49381;49.338;8.794;2022-09-12T12:12:24;6.10;;;3.60;;
63157;SDS011;49381;49.338;8.794;2022-09-12T12:14:28;6.18;;;3.40;;
63157;SDS011;49381;49.338;8.794;2022-09-12T12:16:36;4.70;;;3.30;;
63157;SDS011;49381;49.338;8.794;2022-09-12T12:18:38;5.03;;;2.80;;
63157;SDS011;49381;49.338;8.794;2022-09-12T12:20:41;3.63;;;3.28;;
63157;SDS011;49381;49.338;8.794;2022-09-12T12:22:49;3.40;;;2.72;;
63157;SDS011;49381;49.338;8.794;2022-09-12T12:25:00;3.85;;;2.70;;
63157;SDS011;49381;49.338;8.794;2022-09-12T12:27:04;4.72;;;3.40;;
63157;SDS011;49381;49.338;8.794;2022-09-12T12:29:36;6.10;;;3.25;;
63157;SDS011;49381;49.338;8.794;2022-09-12T12:34:25;4.40;;;3.38;;
63157;SDS011;49381;49.338;8.794;2022-09-12T12:36:32;4.22;;;3.00;;
63157;SDS011;49381;49.338;8.794;2022-09-12T12:38:36;2.95;;;2.65;;
63157;SDS011;49381;49.338;8.794;2022-09-12T12:40:38;5.50;;;3.25;;
63157;SDS011;49381;49.338;8.794;2022-09-12T12:47:47;4.72;;;3.30;;
63157;SDS011;49381;49.338;8.794;2022-09-12T12:49:51;2.75;;;2.30;;
63157;SDS011;49381;49.338;8.794;2022-09-12T12:51:55;3.50;;;2.65;;
63157;SDS011;49381;49.338;8.794;2022-09-12T12:53:58;4.82;;;2.80;;
63157;SDS011;49381;49.338;8.794;2022-09-12T12:56:00;3.55;;;2.65;;